createdAt,value
2019-03-11T00:00:56.326Z,98.48
2019-03-11T00:01:56.287Z,98.69
2019-03-11T00:02:56.282Z,98.59
2019-03-11T00:03:56.272Z,98.80
2019-03-11T00:04:56.281Z,98.80
2019-03-11T00:05:56.245Z,98.53
2019-03-11T00:06:56.215Z,98.27
2019-03-11T00:07:56.215Z,98.22
2019-03-11T00:08:56.205Z,98.63
2019-03-11T00:09:56.246Z,97.55
2019-03-11T00:10:56.178Z,98.80
2019-03-11T00:11:56.173Z,98.11
2019-03-11T00:12:56.161Z,98.48
2019-03-11T00:13:56.173Z,97.55
2019-03-11T00:14:56.206Z,98.17
2019-03-11T00:15:56.131Z,98.38
2019-03-11T00:16:56.140Z,98.48
2019-03-11T00:17:56.097Z,97.70
2019-03-11T00:18:56.095Z,98.38
2019-03-11T00:19:56.136Z,98.80
2019-03-11T00:20:56.090Z,98.48
2019-03-11T00:21:56.129Z,97.34
2019-03-11T00:22:56.049Z,97.65
2019-03-11T00:23:56.048Z,97.55
2019-03-11T00:24:56.059Z,97.75
2019-03-11T00:25:56.051Z,97.17
2019-03-11T00:26:56.006Z,98.43
2019-03-11T00:27:56.043Z,97.38
2019-03-11T00:28:55.992Z,98.43
2019-03-11T00:29:55.974Z,98.48
2019-03-11T00:30:56.088Z,98.22
2019-03-11T00:31:55.959Z,97.80
2019-03-11T00:32:56.001Z,97.91
2019-03-11T00:33:55.934Z,98.22
2019-03-11T00:34:55.915Z,97.80
2019-03-11T00:35:55.917Z,98.43
2019-03-11T00:36:55.935Z,98.01
2019-03-11T00:37:55.954Z,98.22
2019-03-11T00:38:55.908Z,98.63
2019-03-11T00:39:55.885Z,97.28
2019-03-11T00:40:55.853Z,97.38
2019-03-11T00:41:55.866Z,97.70
2019-03-11T00:42:55.870Z,97.49
2019-03-11T00:43:55.850Z,97.38
2019-03-11T00:44:55.810Z,97.59
2019-03-11T00:45:55.811Z,97.49
2019-03-11T00:46:55.796Z,98.43
2019-03-11T00:48:02.139Z,97.49
2019-03-11T00:48:56.803Z,97.38
2019-03-11T00:49:55.794Z,98.01
2019-03-11T00:50:55.750Z,97.80
2019-03-11T00:51:55.737Z,97.49
2019-03-11T00:52:55.755Z,97.80
2019-03-11T00:53:55.733Z,97.49
2019-03-11T00:54:55.759Z,97.70
2019-03-11T00:55:55.714Z,97.49
2019-03-11T00:56:55.688Z,97.38
2019-03-11T00:57:55.754Z,97.85
2019-03-11T00:58:55.671Z,96.97
2019-03-11T00:59:55.744Z,97.74
2019-03-11T01:00:55.644Z,97.28
2019-03-11T01:01:55.642Z,96.86
2019-03-11T01:02:55.648Z,97.80
2019-03-11T01:03:55.640Z,97.80
2019-03-11T01:04:55.646Z,97.12
2019-03-11T01:05:55.631Z,96.97
2019-03-11T01:06:55.594Z,96.86
2019-03-11T01:07:55.577Z,96.24
2019-03-11T01:08:55.605Z,96.86
2019-03-11T01:09:55.562Z,97.43
2019-03-11T01:10:55.614Z,97.07
2019-03-11T01:11:55.527Z,97.12
2019-03-11T01:12:55.533Z,96.91
2019-03-11T01:13:55.544Z,96.76
2019-03-11T01:14:55.489Z,96.39
2019-03-11T01:15:55.586Z,96.18
2019-03-11T01:16:55.475Z,96.08
2019-03-11T01:17:55.476Z,96.28
2019-03-11T01:18:55.477Z,95.87
2019-03-11T01:19:55.446Z,95.25
2019-03-11T01:20:55.464Z,95.51
2019-03-11T01:21:55.430Z,95.97
2019-03-11T01:22:55.431Z,96.24
2019-03-11T01:23:55.428Z,96.34
2019-03-11T01:24:55.416Z,96.28
2019-03-11T01:25:55.385Z,95.97
2019-03-11T01:26:55.393Z,95.25
2019-03-11T01:27:55.371Z,94.78
2019-03-11T01:28:55.353Z,95.97
2019-03-11T01:29:55.354Z,95.45
2019-03-11T01:30:55.347Z,94.62
2019-03-11T01:31:55.337Z,94.68
2019-03-11T01:32:55.300Z,95.25
2019-03-11T01:33:55.304Z,94.93
2019-03-11T01:34:55.274Z,95.45
2019-03-11T01:35:55.282Z,95.30
2019-03-11T01:36:55.305Z,95.30
2019-03-11T01:37:55.266Z,95.72
2019-03-11T01:38:55.237Z,95.72
2019-03-11T01:39:55.303Z,94.99
2019-03-11T01:40:55.249Z,95.25
2019-03-11T01:41:55.298Z,94.82
2019-03-11T01:42:55.189Z,95.09
2019-03-11T01:43:55.223Z,95.72
2019-03-11T01:44:55.170Z,95.45
2019-03-11T01:45:55.190Z,95.66
2019-03-11T01:46:55.193Z,95.20
2019-03-11T01:47:55.143Z,95.72
2019-03-11T01:48:55.135Z,95.72
2019-03-11T01:49:55.153Z,95.62
2019-03-11T01:50:55.105Z,94.89
2019-03-11T01:51:55.121Z,95.66
2019-03-11T01:52:55.097Z,94.68
2019-03-11T01:53:55.073Z,95.56
2019-03-11T01:54:55.139Z,95.51
2019-03-11T01:55:55.070Z,95.09
2019-03-11T01:56:55.103Z,95.09
2019-03-11T01:57:55.029Z,95.87
2019-03-11T01:58:55.053Z,94.78
2019-03-11T01:59:55.049Z,95.40
2019-03-11T02:00:55.045Z,95.20
2019-03-11T02:01:54.983Z,95.83
2019-03-11T02:02:54.982Z,95.51
2019-03-11T02:03:54.976Z,95.30
2019-03-11T02:04:55.009Z,94.68
2019-03-11T02:05:54.979Z,95.40
2019-03-11T02:06:54.934Z,94.47
2019-03-11T02:07:54.930Z,94.57
2019-03-11T02:08:54.916Z,94.26
2019-03-11T02:09:54.930Z,94.47
2019-03-11T02:10:54.929Z,94.78
2019-03-11T02:11:54.896Z,94.47
2019-03-11T02:12:54.923Z,94.57
2019-03-11T02:13:54.858Z,94.37
2019-03-11T02:14:54.877Z,94.68
2019-03-11T02:15:54.847Z,94.47
2019-03-11T02:16:54.859Z,94.26
2019-03-11T02:17:54.818Z,94.37
2019-03-11T02:18:54.827Z,93.01
2019-03-11T02:19:54.838Z,94.37
2019-03-11T02:20:54.780Z,93.54
2019-03-11T02:21:54.774Z,93.43
2019-03-11T02:22:54.810Z,93.74
2019-03-11T02:23:54.792Z,94.37
2019-03-11T02:24:54.799Z,93.64
2019-03-11T02:25:54.734Z,93.54
2019-03-11T02:26:54.725Z,93.12
2019-03-11T02:27:54.710Z,93.43
2019-03-11T02:28:54.698Z,93.85
2019-03-11T02:29:54.718Z,93.85
2019-03-11T02:30:54.681Z,94.16
2019-03-11T02:31:54.702Z,94.10
2019-03-11T02:32:54.727Z,93.33
2019-03-11T02:33:54.693Z,93.33
2019-03-11T02:34:54.632Z,93.74
2019-03-11T02:35:54.631Z,93.85
2019-03-11T02:36:54.641Z,93.64
2019-03-11T02:37:54.639Z,93.54
2019-03-11T02:38:54.608Z,92.18
2019-03-11T02:39:54.592Z,93.01
2019-03-11T02:40:54.602Z,92.80
2019-03-11T02:41:54.584Z,92.70
2019-03-11T02:42:54.549Z,92.60
2019-03-11T02:43:54.576Z,93.01
2019-03-11T02:44:54.552Z,93.12
2019-03-11T02:45:54.559Z,92.85
2019-03-11T02:46:54.502Z,92.70
2019-03-11T02:47:54.503Z,92.74
2019-03-11T02:48:54.486Z,93.01
2019-03-11T02:49:54.532Z,93.23
2019-03-11T02:50:54.505Z,92.70
2019-03-11T02:51:54.509Z,92.91
2019-03-11T02:52:54.444Z,93.23
2019-03-11T02:53:54.442Z,92.49
2019-03-11T02:54:54.447Z,92.91
2019-03-11T02:55:54.465Z,92.49
2019-03-11T02:56:54.404Z,92.54
2019-03-11T02:57:54.398Z,92.85
2019-03-11T02:58:54.383Z,92.95
2019-03-11T02:59:54.366Z,93.68
2019-03-11T03:00:54.398Z,94.31
2019-03-11T03:01:54.365Z,94.31
2019-03-11T03:02:54.337Z,94.82
2019-03-11T03:03:54.354Z,94.51
2019-03-11T03:04:54.364Z,94.72
2019-03-11T03:05:54.384Z,94.93
2019-03-11T03:06:54.300Z,95.56
2019-03-11T03:07:54.330Z,95.29
2019-03-11T03:08:54.279Z,95.81
2019-03-11T03:09:54.296Z,96.12
2019-03-11T03:10:54.244Z,96.85
2019-03-11T03:11:54.327Z,97.16
2019-03-11T03:12:54.271Z,96.64
2019-03-11T03:13:54.269Z,97.16
2019-03-11T03:14:54.204Z,97.06
2019-03-11T03:15:54.191Z,97.16
2019-03-11T03:16:54.188Z,97.00
2019-03-11T03:17:54.180Z,97.78
2019-03-11T03:18:54.198Z,96.58
2019-03-11T03:19:54.165Z,97.47
2019-03-11T03:20:54.165Z,97.94
2019-03-11T03:21:54.162Z,97.16
2019-03-11T03:22:54.124Z,97.78
2019-03-11T03:23:54.142Z,98.46
2019-03-11T03:24:54.122Z,97.72
2019-03-11T03:25:54.097Z,98.72
2019-03-11T03:26:54.075Z,98.35
2019-03-11T03:27:54.226Z,97.83
2019-03-11T03:28:54.143Z,98.77
2019-03-11T03:29:54.188Z,98.56
2019-03-11T03:30:54.038Z,98.97
2019-03-11T03:31:54.116Z,98.87
2019-03-11T03:32:54.023Z,98.56
2019-03-11T03:33:54.090Z,98.97
2019-03-11T03:34:53.998Z,98.97
2019-03-11T03:35:54.038Z,99.50
2019-03-11T03:36:53.975Z,99.23
2019-03-11T03:37:54.000Z,99.40
2019-03-11T03:38:53.998Z,99.40
2019-03-11T03:39:54.005Z,99.02
2019-03-11T03:40:53.966Z,99.18
2019-03-11T03:41:53.921Z,99.96
2019-03-11T03:42:53.962Z,99.33
2019-03-11T03:43:53.957Z,99.75
2019-03-11T03:44:53.938Z,99.96
2019-03-11T03:45:53.887Z,99.99
2019-03-11T03:46:53.861Z,99.75
2019-03-11T03:47:53.924Z,99.99
2019-03-11T03:48:53.872Z,99.99
2019-03-11T03:49:53.870Z,99.99
2019-03-11T03:50:53.825Z,99.71
2019-03-11T03:51:53.821Z,99.99
2019-03-11T03:52:53.795Z,99.13
2019-03-11T03:53:53.789Z,99.99
2019-03-11T03:54:53.825Z,99.96
2019-03-11T03:55:53.789Z,99.71
2019-03-11T03:56:54.430Z,99.99
2019-03-11T03:57:53.754Z,99.99
2019-03-11T03:58:53.807Z,99.99
2019-03-11T03:59:53.775Z,99.99
2019-03-11T04:00:53.721Z,99.99
2019-03-11T04:01:53.707Z,99.99
2019-03-11T04:02:53.703Z,99.99
2019-03-11T04:03:53.709Z,99.99
2019-03-11T04:04:53.706Z,99.99
2019-03-11T04:05:53.664Z,99.99
2019-03-11T04:06:53.666Z,99.99
2019-03-11T04:07:53.635Z,99.99
2019-03-11T04:08:53.622Z,99.99
2019-03-11T04:09:53.649Z,99.99
2019-03-11T04:10:53.659Z,99.99
2019-03-11T04:11:53.625Z,99.99
2019-03-11T04:12:53.598Z,99.99
2019-03-11T04:13:53.587Z,99.99
2019-03-11T04:14:53.571Z,99.91
2019-03-11T04:15:53.601Z,99.81
2019-03-11T04:16:53.551Z,99.99
2019-03-11T04:17:53.547Z,99.99
2019-03-11T04:18:53.532Z,99.99
2019-03-11T04:19:53.566Z,99.99
2019-03-11T04:20:53.568Z,99.99
2019-03-11T04:21:53.518Z,99.99
2019-03-11T04:22:53.514Z,99.75
2019-03-11T04:23:53.512Z,99.91
2019-03-11T04:24:53.481Z,99.99
2019-03-11T04:25:53.486Z,99.99
2019-03-11T04:26:53.458Z,99.99
2019-03-11T04:27:53.485Z,99.99
2019-03-11T04:28:53.413Z,99.99
2019-03-11T04:29:53.421Z,99.99
2019-03-11T04:30:53.462Z,99.99
2019-03-11T04:31:53.425Z,99.99
2019-03-11T04:32:53.394Z,99.99
2019-03-11T04:33:53.362Z,99.99
2019-03-11T04:34:53.356Z,99.99
2019-03-11T04:35:53.506Z,99.99
2019-03-11T04:36:53.334Z,99.99
2019-03-11T04:37:53.329Z,99.99
2019-03-11T04:38:53.315Z,99.99
2019-03-11T04:39:53.306Z,99.99
2019-03-11T04:40:53.334Z,99.99
2019-03-11T04:41:53.329Z,99.99
2019-03-11T04:42:53.287Z,99.99
2019-03-11T04:43:53.253Z,99.99
2019-03-11T04:44:53.256Z,99.99
2019-03-11T04:45:53.298Z,99.99
2019-03-11T04:46:53.267Z,99.99
2019-03-11T04:47:53.251Z,99.99
2019-03-11T04:48:53.209Z,99.99
2019-03-11T04:49:53.194Z,99.99
2019-03-11T04:50:53.203Z,99.99
2019-03-11T04:51:53.207Z,99.99
2019-03-11T04:52:53.199Z,99.99
2019-03-11T04:53:53.201Z,99.98
2019-03-11T04:54:53.139Z,99.87
2019-03-11T04:55:53.130Z,99.99
2019-03-11T04:56:53.119Z,99.98
2019-03-11T04:57:53.111Z,99.99
2019-03-11T04:58:53.142Z,99.99
2019-03-11T04:59:53.093Z,99.99
2019-03-11T05:00:53.078Z,99.99
2019-03-11T05:01:53.072Z,99.87
2019-03-11T05:02:53.142Z,99.99
2019-03-11T05:03:53.091Z,99.99
2019-03-11T05:04:53.047Z,99.99
2019-03-11T05:05:53.050Z,99.99
2019-03-11T05:06:53.324Z,99.99
2019-03-11T05:07:53.038Z,99.99
2019-03-11T05:08:52.992Z,99.87
2019-03-11T05:09:52.974Z,99.66
2019-03-11T05:10:52.994Z,99.66
2019-03-11T05:11:52.960Z,99.24
2019-03-11T05:12:52.982Z,99.55
2019-03-11T05:13:53.004Z,99.55
2019-03-11T05:14:52.929Z,99.35
2019-03-11T05:15:52.918Z,99.99
2019-03-11T05:16:52.956Z,99.99
2019-03-11T05:17:52.945Z,99.66
2019-03-11T05:18:52.905Z,99.76
2019-03-11T05:19:52.906Z,99.99
2019-03-11T05:20:52.870Z,99.87
2019-03-11T05:21:52.861Z,99.87
2019-03-11T05:22:54.820Z,99.76
2019-03-11T05:23:52.836Z,99.98
2019-03-11T05:24:52.824Z,99.87
2019-03-11T05:25:52.842Z,99.99
2019-03-11T05:26:53.150Z,99.99
2019-03-11T05:27:52.818Z,99.98
2019-03-11T05:28:52.803Z,99.99
2019-03-11T05:29:52.766Z,99.99
2019-03-11T05:30:52.752Z,99.99
2019-03-11T05:31:52.782Z,99.72
2019-03-11T05:32:52.770Z,99.99
2019-03-11T05:33:52.732Z,99.99
2019-03-11T05:34:52.766Z,99.99
2019-03-11T05:35:52.702Z,99.99
2019-03-11T05:36:52.688Z,99.99
2019-03-11T05:37:52.756Z,99.99
2019-03-11T05:38:52.680Z,99.99
2019-03-11T05:39:52.722Z,99.99
2019-03-11T05:40:52.696Z,99.99
2019-03-11T05:41:52.640Z,99.99
2019-03-11T05:42:52.659Z,99.99
2019-03-11T05:43:52.690Z,99.99
2019-03-11T05:44:52.837Z,99.99
2019-03-11T05:45:52.591Z,99.99
2019-03-11T05:46:52.583Z,99.99
2019-03-11T05:47:52.617Z,99.99
2019-03-11T05:48:52.595Z,99.99
2019-03-11T05:49:52.555Z,99.99
2019-03-11T05:50:52.561Z,99.99
2019-03-11T05:51:52.539Z,99.99
2019-03-11T05:52:52.516Z,99.51
2019-03-11T05:53:52.547Z,99.10
2019-03-11T05:54:52.501Z,99.72
2019-03-11T05:55:52.661Z,98.99
2019-03-11T05:56:52.481Z,98.94
2019-03-11T05:57:52.470Z,98.78
2019-03-11T05:58:52.525Z,98.94
2019-03-11T05:59:52.459Z,98.94
2019-03-11T06:00:52.429Z,99.10
2019-03-11T06:01:52.423Z,99.20
2019-03-11T06:02:52.428Z,99.20
2019-03-11T06:03:52.429Z,98.88
2019-03-11T06:04:52.394Z,98.99
2019-03-11T06:05:52.377Z,99.30
2019-03-11T06:06:52.381Z,98.94
2019-03-11T06:07:52.395Z,99.57
2019-03-11T06:08:52.379Z,99.62
2019-03-11T06:09:52.333Z,99.67
2019-03-11T06:10:52.367Z,99.15
2019-03-11T06:11:52.342Z,99.41
2019-03-11T06:12:54.795Z,98.57
2019-03-11T06:13:52.331Z,98.43
2019-03-11T06:14:52.298Z,98.32
2019-03-11T06:15:52.271Z,98.63
2019-03-11T06:16:52.317Z,97.70
2019-03-11T06:17:52.381Z,97.38
2019-03-11T06:18:52.274Z,96.76
2019-03-11T06:19:52.271Z,96.86
2019-03-11T06:20:52.227Z,96.45
2019-03-11T06:21:52.207Z,95.78
2019-03-11T06:22:52.219Z,95.62
2019-03-11T06:23:52.253Z,95.78
2019-03-11T06:24:52.234Z,96.61
2019-03-11T06:25:52.183Z,94.64
2019-03-11T06:26:52.184Z,95.57
2019-03-11T06:27:52.207Z,95.89
2019-03-11T06:28:52.132Z,95.57
2019-03-11T06:29:52.190Z,95.78
2019-03-11T06:30:52.110Z,95.99
2019-03-11T06:31:52.097Z,95.36
2019-03-11T06:32:52.112Z,94.84
2019-03-11T06:33:52.078Z,94.53
2019-03-11T06:34:52.096Z,94.43
2019-03-11T06:35:52.068Z,93.87
2019-03-11T06:36:52.052Z,94.53
2019-03-11T06:37:52.044Z,94.01
2019-03-11T06:38:52.050Z,94.28
2019-03-11T06:39:52.021Z,93.45
2019-03-11T06:40:52.036Z,92.72
2019-03-11T06:41:51.998Z,93.87
2019-03-11T06:42:51.990Z,93.35
2019-03-11T06:43:51.978Z,93.45
2019-03-11T06:44:52.001Z,92.72
2019-03-11T06:45:52.002Z,92.30
2019-03-11T06:46:51.939Z,91.85
2019-03-11T06:47:51.954Z,91.95
2019-03-11T06:48:51.968Z,91.85
2019-03-11T06:49:51.938Z,92.78
2019-03-11T06:50:51.899Z,92.78
2019-03-11T06:51:51.905Z,92.36
2019-03-11T06:52:51.879Z,91.85
2019-03-11T06:53:51.886Z,90.91
2019-03-11T06:54:51.916Z,90.81
2019-03-11T06:55:51.844Z,91.43
2019-03-11T06:56:51.867Z,91.22
2019-03-11T06:57:51.818Z,91.95
2019-03-11T06:58:51.851Z,91.85
2019-03-11T06:59:51.838Z,91.53
2019-03-11T07:00:51.804Z,91.12
2019-03-11T07:01:51.792Z,91.64
2019-03-11T07:02:51.775Z,92.47
2019-03-11T07:03:51.801Z,91.74
2019-03-11T07:04:51.746Z,91.85
2019-03-11T07:05:51.772Z,90.91
2019-03-11T07:06:51.736Z,91.28
2019-03-11T07:07:51.734Z,91.53
2019-03-11T07:08:51.745Z,91.39
2019-03-11T07:09:51.691Z,90.19
2019-03-11T07:10:51.720Z,91.33
2019-03-11T07:11:51.666Z,90.60
2019-03-11T07:12:51.677Z,90.56
2019-03-11T07:13:51.651Z,90.60
2019-03-11T07:14:51.668Z,90.14
2019-03-11T07:15:51.639Z,91.18
2019-03-11T07:16:51.629Z,90.25
2019-03-11T07:17:51.607Z,90.45
2019-03-11T07:18:51.603Z,90.14
2019-03-11T07:19:51.614Z,90.45
2019-03-11T07:20:51.611Z,89.62
2019-03-11T07:21:51.571Z,90.04
2019-03-11T07:22:51.581Z,89.83
2019-03-11T07:23:51.566Z,90.14
2019-03-11T07:24:51.549Z,89.83
2019-03-11T07:25:51.558Z,90.14
2019-03-11T07:26:51.525Z,89.31
2019-03-11T07:27:51.511Z,90.25
2019-03-11T07:28:51.500Z,88.90
2019-03-11T07:29:51.489Z,90.04
2019-03-11T07:30:51.538Z,88.17
2019-03-11T07:31:51.464Z,89.62
2019-03-11T07:32:51.459Z,88.65
2019-03-11T07:33:51.447Z,88.02
2019-03-11T07:34:51.457Z,88.02
2019-03-11T07:35:51.454Z,89.03
2019-03-11T07:36:51.423Z,87.37
2019-03-11T07:37:51.395Z,86.02
2019-03-11T07:38:51.415Z,86.36
2019-03-11T07:39:51.373Z,86.22
2019-03-11T07:40:51.397Z,86.54
2019-03-11T07:41:51.361Z,87.05
2019-03-11T07:42:51.393Z,86.12
2019-03-11T07:43:51.331Z,86.43
2019-03-11T07:44:51.321Z,86.33
2019-03-11T07:45:51.338Z,87.01
2019-03-11T07:46:51.295Z,86.60
2019-03-11T07:47:51.450Z,86.80
2019-03-11T07:48:51.270Z,86.29
2019-03-11T07:49:51.277Z,85.14
2019-03-11T07:50:51.250Z,86.08
2019-03-11T07:51:51.272Z,86.60
2019-03-11T07:52:51.241Z,84.21
2019-03-11T07:53:51.260Z,84.42
2019-03-11T07:54:51.264Z,84.94
2019-03-11T07:55:51.239Z,85.71
2019-03-11T07:56:51.214Z,84.67
2019-03-11T07:57:51.212Z,84.56
2019-03-11T07:58:51.175Z,83.63
2019-03-11T07:59:51.169Z,84.46
2019-03-11T08:00:54.207Z,84.67
2019-03-11T08:01:51.175Z,85.91
2019-03-11T08:02:51.138Z,85.60
2019-03-11T08:03:51.114Z,84.77
2019-03-11T08:04:51.118Z,86.54
2019-03-11T08:05:51.116Z,85.71
2019-03-11T08:06:51.115Z,85.71
2019-03-11T08:07:51.095Z,85.71
2019-03-11T08:08:51.104Z,84.88
2019-03-11T08:09:51.050Z,84.46
2019-03-11T08:10:51.072Z,85.60
2019-03-11T08:11:51.088Z,85.60
2019-03-11T08:12:51.041Z,86.02
2019-03-11T08:13:51.072Z,85.81
2019-03-11T08:14:50.996Z,85.81
2019-03-11T08:15:51.010Z,85.81
2019-03-11T08:16:50.973Z,85.33
2019-03-11T08:17:50.966Z,85.19
2019-03-11T08:18:50.995Z,84.77
2019-03-11T08:19:51.022Z,85.50
2019-03-11T08:20:50.970Z,84.77
2019-03-11T08:21:50.942Z,85.46
2019-03-11T08:22:50.943Z,84.94
2019-03-11T08:23:50.920Z,84.63
2019-03-11T08:24:50.948Z,84.31
2019-03-11T08:25:50.909Z,83.73
2019-03-11T08:26:50.865Z,84.98
2019-03-11T08:27:50.866Z,84.52
2019-03-11T08:28:50.864Z,84.73
2019-03-11T08:29:50.897Z,84.31
2019-03-11T08:30:50.841Z,84.52
2019-03-11T08:31:50.853Z,83.80
2019-03-11T08:32:50.848Z,84.94
2019-03-11T08:33:50.819Z,84.83
2019-03-11T08:34:50.794Z,84.11
2019-03-11T08:35:50.865Z,83.17
2019-03-11T08:36:50.788Z,82.10
2019-03-11T08:37:50.786Z,81.99
2019-03-11T08:38:50.751Z,83.34
2019-03-11T08:39:50.731Z,82.51
2019-03-11T08:40:58.285Z,81.51
2019-03-11T08:41:50.748Z,82.10
2019-03-11T08:42:50.707Z,82.72
2019-03-11T08:43:50.705Z,82.51
2019-03-11T08:44:50.673Z,82.31
2019-03-11T08:45:50.675Z,82.10
2019-03-11T08:46:50.701Z,82.10
2019-03-11T08:47:50.671Z,82.20
2019-03-11T08:48:50.647Z,82.31
2019-03-11T08:49:50.630Z,81.75
2019-03-11T08:50:50.636Z,80.65
2019-03-11T08:51:50.629Z,81.23
2019-03-11T08:52:50.614Z,80.71
2019-03-11T08:53:50.624Z,82.20
2019-03-11T08:54:50.563Z,81.37
2019-03-11T08:55:50.552Z,81.85
2019-03-11T08:56:50.582Z,81.23
2019-03-11T08:57:50.538Z,81.54
2019-03-11T08:58:50.526Z,81.13
2019-03-11T08:59:50.587Z,81.16
2019-03-11T09:00:50.539Z,80.61
2019-03-11T09:01:50.549Z,81.02
2019-03-11T09:02:50.474Z,80.30
2019-03-11T09:03:50.513Z,80.30
2019-03-11T09:04:50.468Z,79.71
2019-03-11T09:05:50.441Z,80.30
2019-03-11T09:06:50.463Z,80.75
2019-03-11T09:07:50.426Z,80.71
2019-03-11T09:08:50.424Z,80.51
2019-03-11T09:09:50.395Z,80.61
2019-03-11T09:10:50.395Z,81.02
2019-03-11T09:11:50.433Z,80.71
2019-03-11T09:12:50.411Z,79.88
2019-03-11T09:13:50.382Z,80.47
2019-03-11T09:14:50.355Z,79.68
2019-03-11T09:15:52.736Z,79.68
2019-03-11T09:16:50.323Z,80.71
2019-03-11T09:17:50.346Z,80.30
2019-03-11T09:18:50.303Z,80.30
2019-03-11T09:19:50.296Z,79.58
2019-03-11T09:20:50.312Z,79.85
2019-03-11T09:21:50.277Z,80.05
2019-03-11T09:22:50.266Z,79.23
2019-03-11T09:23:50.298Z,78.81
2019-03-11T09:24:50.234Z,78.61
2019-03-11T09:25:50.228Z,78.81
2019-03-11T09:26:50.236Z,78.30
2019-03-11T09:27:50.983Z,77.84
2019-03-11T09:28:50.228Z,77.12
2019-03-11T09:29:50.217Z,77.26
2019-03-11T09:30:50.191Z,76.71
2019-03-11T09:31:50.203Z,77.43
2019-03-11T09:32:50.186Z,77.33
2019-03-11T09:33:50.176Z,76.91
2019-03-11T09:34:50.182Z,76.29
2019-03-11T09:35:50.136Z,77.19
2019-03-11T09:36:50.109Z,76.78
2019-03-11T09:37:50.168Z,75.63
2019-03-11T09:38:50.142Z,75.40
2019-03-11T09:39:50.129Z,75.40
2019-03-11T09:40:50.066Z,74.05
2019-03-11T09:41:50.098Z,74.22
2019-03-11T09:42:50.060Z,74.43
2019-03-11T09:43:50.679Z,73.29
2019-03-11T09:44:50.024Z,73.26
2019-03-11T09:45:50.100Z,73.47
2019-03-11T09:46:50.022Z,73.33
2019-03-11T09:47:50.025Z,72.91
2019-03-11T09:48:49.993Z,71.61
2019-03-11T09:49:50.017Z,72.33
2019-03-11T09:50:50.002Z,73.05
2019-03-11T09:51:49.999Z,72.91
2019-03-11T09:52:49.946Z,72.95
2019-03-11T09:53:49.930Z,73.26
2019-03-11T09:54:49.909Z,72.67
2019-03-11T09:55:49.904Z,73.29
2019-03-11T09:56:49.946Z,73.50
2019-03-11T09:57:49.888Z,73.60
2019-03-11T09:58:49.885Z,73.71
2019-03-11T09:59:49.899Z,72.91
2019-03-11T10:00:49.851Z,73.50
2019-03-11T10:01:49.882Z,72.88
2019-03-11T10:02:52.951Z,73.84
2019-03-11T10:03:49.819Z,73.94
2019-03-11T10:04:49.816Z,74.05
2019-03-11T10:05:49.787Z,73.33
2019-03-11T10:06:49.808Z,74.57
2019-03-11T10:07:49.839Z,73.94
2019-03-11T10:08:49.769Z,75.19
2019-03-11T10:09:49.753Z,77.50
2019-03-11T10:10:49.737Z,75.74
2019-03-11T10:11:49.775Z,76.84
2019-03-11T10:12:49.776Z,76.36
2019-03-11T10:13:49.702Z,76.98
2019-03-11T10:14:49.695Z,77.39
2019-03-11T10:15:49.705Z,79.36
2019-03-11T10:16:49.676Z,80.29
2019-03-11T10:17:49.707Z,80.91
2019-03-11T10:18:50.368Z,80.22
2019-03-11T10:19:49.654Z,80.12
2019-03-11T10:20:49.658Z,80.64
2019-03-11T10:21:49.622Z,82.19
2019-03-11T10:22:49.651Z,83.78
2019-03-11T10:23:49.661Z,83.26
2019-03-11T10:24:49.614Z,84.20
2019-03-11T10:25:49.590Z,84.30
2019-03-11T10:26:49.571Z,83.00
2019-03-11T10:27:49.592Z,85.86
2019-03-11T10:28:49.614Z,84.20
2019-03-11T10:29:49.557Z,82.75
2019-03-11T10:30:49.571Z,82.71
2019-03-11T10:31:49.521Z,83.47
2019-03-11T10:32:49.535Z,83.44
2019-03-11T10:33:49.545Z,84.64
2019-03-11T10:34:49.488Z,82.57
2019-03-11T10:35:49.473Z,83.09
2019-03-11T10:36:49.486Z,82.46
2019-03-11T10:37:49.473Z,80.50
2019-03-11T10:38:49.473Z,81.23
2019-03-11T10:39:49.431Z,81.02
2019-03-11T10:40:49.450Z,81.33
2019-03-11T10:41:49.416Z,82.32
2019-03-11T10:42:49.440Z,82.78
2019-03-11T10:43:49.457Z,83.56
2019-03-11T10:44:49.374Z,82.01
2019-03-11T10:45:49.403Z,84.60
2019-03-11T10:46:49.411Z,83.36
2019-03-11T10:47:49.393Z,81.19
2019-03-11T10:48:49.341Z,81.81
2019-03-11T10:49:49.397Z,81.09
2019-03-11T10:50:49.408Z,82.57
2019-03-11T10:51:49.295Z,82.12
2019-03-11T10:52:49.325Z,80.46
2019-03-11T10:53:49.286Z,80.57
2019-03-11T10:54:49.256Z,82.26
2019-03-11T10:55:49.280Z,82.57
2019-03-11T10:56:49.243Z,82.57
2019-03-11T10:57:49.238Z,84.58
2019-03-11T10:58:49.244Z,85.50
2019-03-11T10:59:49.206Z,84.82
2019-03-11T11:00:49.228Z,85.55
2019-03-11T11:01:49.187Z,87.30
2019-03-11T11:02:49.227Z,87.45
2019-03-11T11:03:49.212Z,89.62
2019-03-11T11:04:49.162Z,89.83
2019-03-11T11:05:49.184Z,90.77
2019-03-11T11:06:49.158Z,90.14
2019-03-11T11:07:49.129Z,89.52
2019-03-11T11:08:49.224Z,89.83
2019-03-11T11:09:49.129Z,89.62
2019-03-11T11:10:49.136Z,90.87
2019-03-11T11:11:49.083Z,90.77
2019-03-11T11:12:49.094Z,91.18
2019-03-11T11:13:49.089Z,90.39
2019-03-11T11:14:49.041Z,90.87
2019-03-11T11:15:49.076Z,92.16
2019-03-11T11:16:49.067Z,92.68
2019-03-11T11:17:49.015Z,92.11
2019-03-11T11:18:49.038Z,90.77
2019-03-11T11:19:49.034Z,92.57
2019-03-11T11:20:49.046Z,91.08
2019-03-11T11:21:49.036Z,90.81
2019-03-11T11:22:48.960Z,91.95
2019-03-11T11:23:49.020Z,90.50
2019-03-11T11:24:48.974Z,93.60
2019-03-11T11:25:49.008Z,94.27
2019-03-11T11:26:48.918Z,95.20
2019-03-11T11:27:48.917Z,94.17
2019-03-11T11:28:48.979Z,94.27
2019-03-11T11:29:48.882Z,93.65
2019-03-11T11:30:48.914Z,95.20
2019-03-11T11:31:48.874Z,95.67
2019-03-11T11:32:48.848Z,95.36
2019-03-11T11:33:48.852Z,94.63
2019-03-11T11:34:48.835Z,94.26
2019-03-11T11:35:48.860Z,95.36
2019-03-11T11:36:48.802Z,96.39
2019-03-11T11:37:48.801Z,96.39
2019-03-11T11:38:48.803Z,95.40
2019-03-11T11:39:48.770Z,94.26
2019-03-11T11:40:48.795Z,94.98
2019-03-11T11:41:48.761Z,95.29
2019-03-11T11:42:48.791Z,95.40
2019-03-11T11:43:48.732Z,95.81
2019-03-11T11:44:48.722Z,97.47
2019-03-11T11:45:48.714Z,98.51
2019-03-11T11:46:48.738Z,98.61
2019-03-11T11:47:48.717Z,98.61
2019-03-11T11:48:48.684Z,96.75
2019-03-11T11:49:48.706Z,96.69
2019-03-11T11:50:48.703Z,96.79
2019-03-11T11:51:48.725Z,97.62
2019-03-11T11:52:48.660Z,97.41
2019-03-11T11:53:48.706Z,97.20
2019-03-11T11:54:48.647Z,98.20
2019-03-11T11:55:57.245Z,98.82
2019-03-11T11:56:49.596Z,97.47
2019-03-11T11:57:48.617Z,96.48
2019-03-11T11:58:48.614Z,97.31
2019-03-11T11:59:54.048Z,97.68
2019-03-11T12:00:49.559Z,98.51
2019-03-11T12:01:48.583Z,98.30
2019-03-11T12:02:48.536Z,96.27
2019-03-11T12:03:48.546Z,97.37
2019-03-11T12:04:48.506Z,97.10
2019-03-11T12:05:48.534Z,97.68
2019-03-11T12:06:48.491Z,96.69
2019-03-11T12:07:48.478Z,97.52
2019-03-11T12:08:48.510Z,97.31
2019-03-11T12:09:48.484Z,97.62
2019-03-11T12:10:48.440Z,97.31
2019-03-11T12:11:48.433Z,97.52
2019-03-11T12:12:48.424Z,97.58
2019-03-11T12:13:48.449Z,97.27
2019-03-11T12:14:48.407Z,96.12
2019-03-11T12:15:48.390Z,97.27
2019-03-11T12:16:48.377Z,97.22
2019-03-11T12:17:48.451Z,97.43
2019-03-11T12:18:48.412Z,96.81
2019-03-11T12:19:48.354Z,97.12
2019-03-11T12:20:48.347Z,95.56
2019-03-11T12:21:48.386Z,96.81
2019-03-11T12:22:48.321Z,96.81
2019-03-11T12:23:48.348Z,95.77
2019-03-11T12:24:48.346Z,95.15
2019-03-11T12:25:48.301Z,96.91
2019-03-11T12:26:48.361Z,96.19
2019-03-11T12:27:53.609Z,96.60
2019-03-11T12:28:49.254Z,95.40
2019-03-11T12:29:48.287Z,95.71
2019-03-11T12:30:48.230Z,96.12
2019-03-11T12:31:48.288Z,95.46
2019-03-11T12:32:48.271Z,96.70
2019-03-11T12:33:48.191Z,94.98
2019-03-11T12:34:48.235Z,96.23
2019-03-11T12:35:48.187Z,96.54
2019-03-11T12:36:48.174Z,96.64
2019-03-11T12:37:48.152Z,97.47
2019-03-11T12:38:48.141Z,97.16
2019-03-11T12:39:48.173Z,96.23
2019-03-11T12:40:48.146Z,96.60
2019-03-11T12:41:48.138Z,96.60
2019-03-11T12:42:48.106Z,96.39
2019-03-11T12:43:48.090Z,96.75
2019-03-11T12:44:48.127Z,96.50
2019-03-11T12:45:48.112Z,97.33
2019-03-11T12:46:48.090Z,96.91
2019-03-11T12:47:48.059Z,96.60
2019-03-11T12:48:48.059Z,97.22
2019-03-11T12:49:48.027Z,97.64
2019-03-11T12:50:48.047Z,97.33
2019-03-11T12:51:50.058Z,97.17
2019-03-11T12:52:48.040Z,97.28